sensor_id;sensor_type;location;lat;lon;timestamp;P1;durP1;ratioP1;P2;durP2;ratioP2
43823;SDS011;29470;53.550;9.926;2023-04-24T00:04:58;9.80;;;6.80;;
43823;SDS011;29470;53.550;9.926;2023-04-24T00:10:04;10.00;;;6.70;;
43823;SDS011;29470;53.550;9.926;2023-04-24T00:15:10;8.52;;;6.38;;
43823;SDS011;29470;53.550;9.926;2023-04-24T00:20:13;9.80;;;6.20;;
43823;SDS011;29470;53.550;9.926;2023-04-24T00:25:16;8.38;;;6.30;;
43823;SDS011;29470;53.550;9.926;2023-04-24T00:30:20;9.60;;;6.50;;
43823;SDS011;29470;53.550;9.926;2023-04-24T00:35:23;8.13;;;6.18;;
43823;SDS011;29470;53.550;9.926;2023-04-24T00:40:26;10.68;;;7.18;;
43823;SDS011;29470;53.550;9.926;2023-04-24T00:45:30;8.55;;;6.22;;
43823;SDS011;29470;53.550;9.926;2023-04-24T00:50:35;9.80;;;7.05;;
43823;SDS011;29470;53.550;9.926;2023-04-24T00:55:38;11.25;;;7.40;;
43823;SDS011;29470;53.550;9.926;2023-04-24T01:00:42;9.82;;;6.68;;
43823;SDS011;29470;53.550;9.926;2023-04-24T01:05:47;9.32;;;6.25;;
43823;SDS011;29470;53.550;9.926;2023-04-24T01:10:52;8.95;;;6.50;;
43823;SDS011;29470;53.550;9.926;2023-04-24T01:15:56;8.20;;;5.97;;
43823;SDS011;29470;53.550;9.926;2023-04-24T01:21:02;7.85;;;5.30;;
43823;SDS011;29470;53.550;9.926;2023-04-24T01:26:08;6.75;;;5.45;;
43823;SDS011;29470;53.550;9.926;2023-04-24T01:31:10;7.85;;;5.10;;
43823;SDS011;29470;53.550;9.926;2023-04-24T01:36:13;6.88;;;4.97;;
43823;SDS011;29470;53.550;9.926;2023-04-24T01:41:19;6.03;;;4.57;;
43823;SDS011;29470;53.550;9.926;2023-04-24T01:46:22;5.82;;;4.07;;
43823;SDS011;29470;53.550;9.926;2023-04-24T01:51:25;5.53;;;3.80;;
43823;SDS011;29470;53.550;9.926;2023-04-24T01:56:29;6.25;;;4.20;;
43823;SDS011;29470;53.550;9.926;2023-04-24T02:01:33;7.80;;;3.40;;
43823;SDS011;29470;53.550;9.926;2023-04-24T02:06:38;4.10;;;2.92;;
43823;SDS011;29470;53.550;9.926;2023-04-24T02:11:42;3.42;;;2.95;;
43823;SDS011;29470;53.550;9.926;2023-04-24T02:16:45;5.00;;;2.60;;
43823;SDS011;29470;53.550;9.926;2023-04-24T02:21:48;5.50;;;3.65;;
43823;SDS011;29470;53.550;9.926;2023-04-24T02:26:52;4.68;;;2.90;;
43823;SDS011;29470;53.550;9.926;2023-04-24T02:31:55;3.42;;;2.33;;
43823;SDS011;29470;53.550;9.926;2023-04-24T02:36:58;5.55;;;2.67;;
43823;SDS011;29470;53.550;9.926;2023-04-24T02:42:02;3.78;;;2.90;;
43823;SDS011;29470;53.550;9.926;2023-04-24T02:47:04;5.00;;;3.00;;
43823;SDS011;29470;53.550;9.926;2023-04-24T02:52:08;4.07;;;2.88;;
43823;SDS011;29470;53.550;9.926;2023-04-24T02:57:13;5.15;;;2.90;;
43823;SDS011;29470;53.550;9.926;2023-04-24T03:02:16;4.75;;;2.95;;
43823;SDS011;29470;53.550;9.926;2023-04-24T03:07:19;4.28;;;3.00;;
43823;SDS011;29470;53.550;9.926;2023-04-24T03:12:24;4.47;;;2.75;;
43823;SDS011;29470;53.550;9.926;2023-04-24T03:17:27;3.63;;;2.72;;
43823;SDS011;29470;53.550;9.926;2023-04-24T03:22:30;4.32;;;2.92;;
43823;SDS011;29470;53.550;9.926;2023-04-24T03:27:35;3.60;;;2.22;;
43823;SDS011;29470;53.550;9.926;2023-04-24T03:32:46;3.92;;;2.45;;
43823;SDS011;29470;53.550;9.926;2023-04-24T03:43:18;3.78;;;2.85;;
43823;SDS011;29470;53.550;9.926;2023-04-24T03:48:21;2.90;;;2.00;;
43823;SDS011;29470;53.550;9.926;2023-04-24T03:53:24;3.65;;;2.25;;
43823;SDS011;29470;53.550;9.926;2023-04-24T03:58:30;5.45;;;2.80;;
43823;SDS011;29470;53.550;9.926;2023-04-24T04:03:33;3.85;;;2.40;;
43823;SDS011;29470;53.550;9.926;2023-04-24T04:08:37;3.85;;;2.53;;
43823;SDS011;29470;53.550;9.926;2023-04-24T04:13:41;3.15;;;2.20;;
43823;SDS011;29470;53.550;9.926;2023-04-24T04:18:44;2.28;;;1.95;;
43823;SDS011;29470;53.550;9.926;2023-04-24T04:23:47;2.97;;;1.80;;
43823;SDS011;29470;53.550;9.926;2023-04-24T04:29:00;4.50;;;2.00;;
43823;SDS011;29470;53.550;9.926;2023-04-24T04:34:05;2.95;;;1.83;;
43823;SDS011;29470;53.550;9.926;2023-04-24T04:39:09;4.15;;;1.63;;
43823;SDS011;29470;53.550;9.926;2023-04-24T04:44:39;5.35;;;3.35;;
43823;SDS011;29470;53.550;9.926;2023-04-24T04:49:46;23.80;;;9.75;;
43823;SDS011;29470;53.550;9.926;2023-04-24T04:54:53;3.03;;;1.58;;
43823;SDS011;29470;53.550;9.926;2023-04-24T05:00:04;3.97;;;1.77;;
43823;SDS011;29470;53.550;9.926;2023-04-24T05:05:18;6.45;;;3.58;;
43823;SDS011;29470;53.550;9.926;2023-04-24T05:10:22;3.35;;;2.22;;
43823;SDS011;29470;53.550;9.926;2023-04-24T05:15:29;1.85;;;1.42;;
43823;SDS011;29470;53.550;9.926;2023-04-24T05:20:34;3.65;;;1.40;;
43823;SDS011;29470;53.550;9.926;2023-04-24T05:25:37;2.80;;;1.30;;
43823;SDS011;29470;53.550;9.926;2023-04-24T05:30:46;1.73;;;1.30;;
43823;SDS011;29470;53.550;9.926;2023-04-24T05:35:50;2.20;;;1.67;;
43823;SDS011;29470;53.550;9.926;2023-04-24T05:40:54;4.05;;;1.60;;
43823;SDS011;29470;53.550;9.926;2023-04-24T05:45:59;2.30;;;1.60;;
43823;SDS011;29470;53.550;9.926;2023-04-24T05:51:02;3.38;;;1.60;;
43823;SDS011;29470;53.550;9.926;2023-04-24T05:56:06;4.75;;;1.90;;
43823;SDS011;29470;53.550;9.926;2023-04-24T06:01:11;3.67;;;1.70;;
43823;SDS011;29470;53.550;9.926;2023-04-24T06:06:14;3.78;;;1.75;;
43823;SDS011;29470;53.550;9.926;2023-04-24T06:11:17;8.77;;;3.55;;
43823;SDS011;29470;53.550;9.926;2023-04-24T06:16:22;7.47;;;3.40;;
43823;SDS011;29470;53.550;9.926;2023-04-24T06:21:32;6.10;;;2.65;;
43823;SDS011;29470;53.550;9.926;2023-04-24T06:26:36;7.53;;;4.07;;
43823;SDS011;29470;53.550;9.926;2023-04-24T06:31:42;4.85;;;2.83;;
43823;SDS011;29470;53.550;9.926;2023-04-24T06:36:46;5.88;;;2.42;;
43823;SDS011;29470;53.550;9.926;2023-04-24T06:41:49;3.92;;;2.00;;
43823;SDS011;29470;53.550;9.926;2023-04-24T06:46:56;3.75;;;1.70;;
43823;SDS011;29470;53.550;9.926;2023-04-24T06:51:59;3.10;;;1.50;;
43823;SDS011;29470;53.550;9.926;2023-04-24T06:57:02;3.05;;;1.50;;
43823;SDS011;29470;53.550;9.926;2023-04-24T07:02:06;3.63;;;1.50;;
43823;SDS011;29470;53.550;9.926;2023-04-24T07:07:09;2.33;;;1.67;;
43823;SDS011;29470;53.550;9.926;2023-04-24T07:12:14;2.85;;;1.77;;
43823;SDS011;29470;53.550;9.926;2023-04-24T07:17:19;2.95;;;1.85;;
43823;SDS011;29470;53.550;9.926;2023-04-24T07:22:22;2.80;;;1.77;;
43823;SDS011;29470;53.550;9.926;2023-04-24T07:27:26;4.20;;;2.40;;
43823;SDS011;29470;53.550;9.926;2023-04-24T07:32:30;4.10;;;3.22;;
43823;SDS011;29470;53.550;9.926;2023-04-24T07:37:33;2.88;;;2.13;;
43823;SDS011;29470;53.550;9.926;2023-04-24T07:42:36;3.22;;;2.55;;
43823;SDS011;29470;53.550;9.926;2023-04-24T07:47:41;3.60;;;2.72;;
43823;SDS011;29470;53.550;9.926;2023-04-24T07:52:45;3.75;;;3.08;;
43823;SDS011;29470;53.550;9.926;2023-04-24T07:57:48;5.28;;;3.53;;
43823;SDS011;29470;53.550;9.926;2023-04-24T08:02:52;6.05;;;3.70;;
43823;SDS011;29470;53.550;9.926;2023-04-24T08:07:56;7.03;;;4.00;;
43823;SDS011;29470;53.550;9.926;2023-04-24T08:12:59;5.45;;;4.10;;
43823;SDS011;29470;53.550;9.926;2023-04-24T08:18:03;6.22;;;4.47;;
43823;SDS011;29470;53.550;9.926;2023-04-24T08:23:06;6.38;;;4.70;;
43823;SDS011;29470;53.550;9.926;2023-04-24T08:28:09;8.00;;;5.38;;
43823;SDS011;29470;53.550;9.926;2023-04-24T08:33:13;6.35;;;4.20;;
43823;SDS011;29470;53.550;9.926;2023-04-24T08:38:16;6.65;;;4.25;;
43823;SDS011;29470;53.550;9.926;2023-04-24T08:43:20;7.20;;;5.03;;
43823;SDS011;29470;53.550;9.926;2023-04-24T08:48:26;6.53;;;4.85;;
43823;SDS011;29470;53.550;9.926;2023-04-24T08:53:32;9.53;;;5.40;;
43823;SDS011;29470;53.550;9.926;2023-04-24T08:58:36;7.10;;;5.10;;
43823;SDS011;29470;53.550;9.926;2023-04-24T09:03:40;6.05;;;5.20;;
43823;SDS011;29470;53.550;9.926;2023-04-24T09:08:43;8.05;;;5.40;;
43823;SDS011;29470;53.550;9.926;2023-04-24T09:13:47;7.97;;;5.70;;
43823;SDS011;29470;53.550;9.926;2023-04-24T09:18:52;8.18;;;5.13;;
43823;SDS011;29470;53.550;9.926;2023-04-24T09:23:59;6.70;;;4.97;;
43823;SDS011;29470;53.550;9.926;2023-04-24T09:29:04;6.80;;;4.90;;
43823;SDS011;29470;53.550;9.926;2023-04-24T09:34:08;6.35;;;4.50;;
43823;SDS011;29470;53.550;9.926;2023-04-24T09:39:15;6.35;;;5.10;;
43823;SDS011;29470;53.550;9.926;2023-04-24T09:44:19;6.65;;;5.47;;
43823;SDS011;29470;53.550;9.926;2023-04-24T09:49:24;10.20;;;7.20;;
43823;SDS011;29470;53.550;9.926;2023-04-24T09:54:28;10.85;;;6.72;;
43823;SDS011;29470;53.550;9.926;2023-04-24T09:59:32;11.20;;;6.72;;
43823;SDS011;29470;53.550;9.926;2023-04-24T10:04:39;9.90;;;6.28;;
43823;SDS011;29470;53.550;9.926;2023-04-24T10:09:42;13.57;;;7.13;;
43823;SDS011;29470;53.550;9.926;2023-04-24T10:14:45;11.13;;;7.07;;
43823;SDS011;29470;53.550;9.926;2023-04-24T10:19:50;13.32;;;7.60;;
43823;SDS011;29470;53.550;9.926;2023-04-24T10:24:54;13.80;;;7.65;;
43823;SDS011;29470;53.550;9.926;2023-04-24T10:29:57;12.45;;;7.70;;
43823;SDS011;29470;53.550;9.926;2023-04-24T10:35:03;14.63;;;8.75;;
43823;SDS011;29470;53.550;9.926;2023-04-24T10:40:09;14.35;;;9.35;;
43823;SDS011;29470;53.550;9.926;2023-04-24T10:45:16;15.98;;;9.38;;
43823;SDS011;29470;53.550;9.926;2023-04-24T10:50:21;16.65;;;9.18;;
43823;SDS011;29470;53.550;9.926;2023-04-24T10:55:44;14.30;;;9.23;;
43823;SDS011;29470;53.550;9.926;2023-04-24T11:00:55;13.43;;;8.30;;
43823;SDS011;29470;53.550;9.926;2023-04-24T11:06:01;23.33;;;9.93;;
43823;SDS011;29470;53.550;9.926;2023-04-24T11:11:09;14.07;;;8.85;;
43823;SDS011;29470;53.550;9.926;2023-04-24T11:16:13;16.83;;;8.57;;
43823;SDS011;29470;53.550;9.926;2023-04-24T11:21:18;12.57;;;8.50;;
43823;SDS011;29470;53.550;9.926;2023-04-24T11:26:22;12.27;;;7.10;;
43823;SDS011;29470;53.550;9.926;2023-04-24T11:31:35;17.95;;;8.38;;
43823;SDS011;29470;53.550;9.926;2023-04-24T11:36:42;14.40;;;7.93;;
43823;SDS011;29470;53.550;9.926;2023-04-24T11:41:45;11.30;;;7.82;;
43823;SDS011;29470;53.550;9.926;2023-04-24T11:46:49;13.00;;;7.80;;
43823;SDS011;29470;53.550;9.926;2023-04-24T11:51:56;11.05;;;7.55;;
43823;SDS011;29470;53.550;9.926;2023-04-24T11:57:03;10.38;;;6.93;;
43823;SDS011;29470;53.550;9.926;2023-04-24T12:02:07;15.45;;;9.05;;
43823;SDS011;29470;53.550;9.926;2023-04-24T12:07:12;11.40;;;6.85;;
43823;SDS011;29470;53.550;9.926;2023-04-24T12:12:16;11.60;;;6.78;;
43823;SDS011;29470;53.550;9.926;2023-04-24T12:17:23;8.50;;;5.80;;
43823;SDS011;29470;53.550;9.926;2023-04-24T12:22:43;10.60;;;6.30;;
43823;SDS011;29470;53.550;9.926;2023-04-24T12:27:52;10.48;;;6.60;;
43823;SDS011;29470;53.550;9.926;2023-04-24T12:38:06;9.18;;;6.20;;
43823;SDS011;29470;53.550;9.926;2023-04-24T12:43:13;9.48;;;6.90;;
43823;SDS011;29470;53.550;9.926;2023-04-24T12:48:17;9.05;;;6.65;;
43823;SDS011;29470;53.550;9.926;2023-04-24T12:53:22;13.95;;;7.32;;
43823;SDS011;29470;53.550;9.926;2023-04-24T12:58:27;9.60;;;6.88;;
43823;SDS011;29470;53.550;9.926;2023-04-24T13:03:30;9.32;;;5.95;;
43823;SDS011;29470;53.550;9.926;2023-04-24T13:08:35;8.30;;;5.93;;
43823;SDS011;29470;53.550;9.926;2023-04-24T13:13:38;9.65;;;6.13;;
43823;SDS011;29470;53.550;9.926;2023-04-24T13:18:41;8.25;;;5.63;;
43823;SDS011;29470;53.550;9.926;2023-04-24T13:23:46;9.43;;;5.20;;
43823;SDS011;29470;53.550;9.926;2023-04-24T13:28:49;7.93;;;5.78;;
43823;SDS011;29470;53.550;9.926;2023-04-24T13:33:52;7.85;;;5.72;;
43823;SDS011;29470;53.550;9.926;2023-04-24T13:38:56;10.57;;;5.68;;
43823;SDS011;29470;53.550;9.926;2023-04-24T13:43:59;7.20;;;5.38;;
43823;SDS011;29470;53.550;9.926;2023-04-24T13:49:02;7.82;;;5.63;;
43823;SDS011;29470;53.550;9.926;2023-04-24T13:54:07;8.40;;;5.65;;
43823;SDS011;29470;53.550;9.926;2023-04-24T13:59:11;6.20;;;5.07;;
43823;SDS011;29470;53.550;9.926;2023-04-24T14:04:15;8.95;;;6.15;;
43823;SDS011;29470;53.550;9.926;2023-04-24T14:09:22;6.63;;;4.70;;
43823;SDS011;29470;53.550;9.926;2023-04-24T14:14:25;8.57;;;5.00;;
43823;SDS011;29470;53.550;9.926;2023-04-24T14:19:28;5.95;;;4.70;;
43823;SDS011;29470;53.550;9.926;2023-04-24T14:24:32;6.82;;;5.45;;
43823;SDS011;29470;53.550;9.926;2023-04-24T14:29:35;7.85;;;5.80;;
43823;SDS011;29470;53.550;9.926;2023-04-24T14:34:37;8.57;;;6.05;;
43823;SDS011;29470;53.550;9.926;2023-04-24T14:39:42;8.05;;;5.97;;
43823;SDS011;29470;53.550;9.926;2023-04-24T14:44:56;9.27;;;6.80;;
43823;SDS011;29470;53.550;9.926;2023-04-24T14:49:59;11.50;;;6.47;;
43823;SDS011;29470;53.550;9.926;2023-04-24T14:55:04;9.45;;;7.03;;
43823;SDS011;29470;53.550;9.926;2023-04-24T15:00:08;11.70;;;8.07;;
43823;SDS011;29470;53.550;9.926;2023-04-24T15:05:12;13.05;;;8.23;;
43823;SDS011;29470;53.550;9.926;2023-04-24T15:10:17;10.38;;;6.68;;
43823;SDS011;29470;53.550;9.926;2023-04-24T15:15:20;9.45;;;6.15;;
43823;SDS011;29470;53.550;9.926;2023-04-24T15:20:23;4.90;;;3.15;;
43823;SDS011;29470;53.550;9.926;2023-04-24T15:25:27;4.18;;;2.53;;
43823;SDS011;29470;53.550;9.926;2023-04-24T15:30:30;3.67;;;2.80;;
43823;SDS011;29470;53.550;9.926;2023-04-24T15:35:33;6.50;;;3.05;;
43823;SDS011;29470;53.550;9.926;2023-04-24T15:40:38;4.93;;;2.63;;
43823;SDS011;29470;53.550;9.926;2023-04-24T15:45:40;9.25;;;4.57;;
43823;SDS011;29470;53.550;9.926;2023-04-24T15:50:44;11.15;;;6.18;;
43823;SDS011;29470;53.550;9.926;2023-04-24T15:55:49;10.18;;;6.10;;
43823;SDS011;29470;53.550;9.926;2023-04-24T16:00:52;9.13;;;5.82;;
43823;SDS011;29470;53.550;9.926;2023-04-24T16:05:55;10.68;;;6.25;;
43823;SDS011;29470;53.550;9.926;2023-04-24T16:11:00;13.07;;;7.35;;
43823;SDS011;29470;53.550;9.926;2023-04-24T16:16:03;7.72;;;5.07;;
43823;SDS011;29470;53.550;9.926;2023-04-24T16:21:06;7.55;;;4.70;;
43823;SDS011;29470;53.550;9.926;2023-04-24T16:26:11;7.00;;;4.32;;
43823;SDS011;29470;53.550;9.926;2023-04-24T16:31:14;5.85;;;3.60;;
43823;SDS011;29470;53.550;9.926;2023-04-24T16:36:17;5.95;;;3.80;;
43823;SDS011;29470;53.550;9.926;2023-04-24T16:41:22;5.35;;;3.15;;
43823;SDS011;29470;53.550;9.926;2023-04-24T16:46:25;5.80;;;3.45;;
43823;SDS011;29470;53.550;9.926;2023-04-24T16:51:28;6.60;;;3.45;;
43823;SDS011;29470;53.550;9.926;2023-04-24T16:56:33;5.65;;;3.75;;
43823;SDS011;29470;53.550;9.926;2023-04-24T17:01:36;8.90;;;4.05;;
43823;SDS011;29470;53.550;9.926;2023-04-24T17:06:39;7.13;;;4.07;;
43823;SDS011;29470;53.550;9.926;2023-04-24T17:11:43;11.40;;;6.10;;
43823;SDS011;29470;53.550;9.926;2023-04-24T17:16:46;10.27;;;5.10;;
43823;SDS011;29470;53.550;9.926;2023-04-24T17:21:49;9.50;;;5.05;;
43823;SDS011;29470;53.550;9.926;2023-04-24T17:26:54;10.20;;;5.05;;
43823;SDS011;29470;53.550;9.926;2023-04-24T17:32:08;16.20;;;5.90;;
43823;SDS011;29470;53.550;9.926;2023-04-24T17:37:11;9.32;;;5.10;;
43823;SDS011;29470;53.550;9.926;2023-04-24T17:42:15;7.65;;;4.72;;
43823;SDS011;29470;53.550;9.926;2023-04-24T17:47:18;8.00;;;4.57;;
43823;SDS011;29470;53.550;9.926;2023-04-24T17:52:22;9.70;;;4.63;;
43823;SDS011;29470;53.550;9.926;2023-04-24T17:57:26;9.30;;;5.07;;
43823;SDS011;29470;53.550;9.926;2023-04-24T18:02:29;8.07;;;5.10;;
43823;SDS011;29470;53.550;9.926;2023-04-24T18:07:32;9.05;;;4.97;;
43823;SDS011;29470;53.550;9.926;2023-04-24T18:12:36;11.90;;;5.43;;
43823;SDS011;29470;53.550;9.926;2023-04-24T18:17:39;11.85;;;5.45;;
43823;SDS011;29470;53.550;9.926;2023-04-24T18:22:42;7.97;;;4.72;;
43823;SDS011;29470;53.550;9.926;2023-04-24T18:27:47;10.00;;;3.80;;
43823;SDS011;29470;53.550;9.926;2023-04-24T18:32:50;7.93;;;3.90;;
43823;SDS011;29470;53.550;9.926;2023-04-24T18:37:54;10.20;;;3.78;;
43823;SDS011;29470;53.550;9.926;2023-04-24T18:42:58;5.65;;;3.33;;
43823;SDS011;29470;53.550;9.926;2023-04-24T18:48:01;8.82;;;2.92;;
43823;SDS011;29470;53.550;9.926;2023-04-24T18:53:04;5.28;;;2.75;;
43823;SDS011;29470;53.550;9.926;2023-04-24T18:58:09;6.88;;;2.50;;
43823;SDS011;29470;53.550;9.926;2023-04-24T19:03:12;7.30;;;2.78;;
43823;SDS011;29470;53.550;9.926;2023-04-24T19:08:15;5.07;;;2.42;;
43823;SDS011;29470;53.550;9.926;2023-04-24T19:13:19;5.13;;;2.17;;
43823;SDS011;29470;53.550;9.926;2023-04-24T19:18:22;5.22;;;2.58;;
43823;SDS011;29470;53.550;9.926;2023-04-24T19:23:26;4.53;;;2.53;;
43823;SDS011;29470;53.550;9.926;2023-04-24T19:28:30;6.35;;;2.40;;
43823;SDS011;29470;53.550;9.926;2023-04-24T19:33:33;8.68;;;2.50;;
43823;SDS011;29470;53.550;9.926;2023-04-24T19:38:36;4.75;;;2.58;;
43823;SDS011;29470;53.550;9.926;2023-04-24T19:43:41;5.05;;;2.50;;
43823;SDS011;29470;53.550;9.926;2023-04-24T19:48:43;6.82;;;2.78;;
43823;SDS011;29470;53.550;9.926;2023-04-24T19:53:47;6.70;;;3.35;;
43823;SDS011;29470;53.550;9.926;2023-04-24T19:58:52;8.77;;;3.05;;
43823;SDS011;29470;53.550;9.926;2023-04-24T20:03:54;7.07;;;3.28;;
43823;SDS011;29470;53.550;9.926;2023-04-24T20:08:58;5.68;;;3.38;;
43823;SDS011;29470;53.550;9.926;2023-04-24T20:14:02;10.18;;;4.10;;
43823;SDS011;29470;53.550;9.926;2023-04-24T20:19:05;5.60;;;2.95;;
43823;SDS011;29470;53.550;9.926;2023-04-24T20:24:08;7.93;;;3.20;;
43823;SDS011;29470;53.550;9.926;2023-04-24T20:29:12;8.25;;;3.42;;
43823;SDS011;29470;53.550;9.926;2023-04-24T20:34:15;7.18;;;2.95;;
43823;SDS011;29470;53.550;9.926;2023-04-24T20:39:18;6.10;;;3.10;;
43823;SDS011;29470;53.550;9.926;2023-04-24T20:44:22;5.72;;;3.10;;
43823;SDS011;29470;53.550;9.926;2023-04-24T20:49:25;8.07;;;3.47;;
43823;SDS011;29470;53.550;9.926;2023-04-24T20:54:28;6.47;;;3.17;;
43823;SDS011;29470;53.550;9.926;2023-04-24T20:59:32;8.38;;;3.30;;
43823;SDS011;29470;53.550;9.926;2023-04-24T21:04:35;6.55;;;3.20;;
43823;SDS011;29470;53.550;9.926;2023-04-24T21:09:40;9.27;;;3.40;;
43823;SDS011;29470;53.550;9.926;2023-04-24T21:14:44;10.10;;;3.70;;
43823;SDS011;29470;53.550;9.926;2023-04-24T21:19:49;8.05;;;3.63;;
43823;SDS011;29470;53.550;9.926;2023-04-24T21:24:52;6.18;;;3.05;;
43823;SDS011;29470;53.550;9.926;2023-04-24T21:29:56;7.60;;;3.13;;
43823;SDS011;29470;53.550;9.926;2023-04-24T21:34:59;7.47;;;3.22;;
43823;SDS011;29470;53.550;9.926;2023-04-24T21:40:02;7.90;;;3.50;;
43823;SDS011;29470;53.550;9.926;2023-04-24T21:45:07;6.63;;;2.90;;
43823;SDS011;29470;53.550;9.926;2023-04-24T21:50:11;7.72;;;3.47;;
43823;SDS011;29470;53.550;9.926;2023-04-24T21:55:14;7.60;;;3.50;;
43823;SDS011;29470;53.550;9.926;2023-04-24T22:00:18;8.73;;;3.92;;
43823;SDS011;29470;53.550;9.926;2023-04-24T22:05:21;6.57;;;3.83;;
43823;SDS011;29470;53.550;9.926;2023-04-24T22:10:24;8.55;;;3.45;;
43823;SDS011;29470;53.550;9.926;2023-04-24T22:15:30;10.50;;;3.95;;
43823;SDS011;29470;53.550;9.926;2023-04-24T22:20:32;7.43;;;4.00;;
43823;SDS011;29470;53.550;9.926;2023-04-24T22:25:35;8.32;;;3.78;;
43823;SDS011;29470;53.550;9.926;2023-04-24T22:30:39;7.18;;;3.80;;
43823;SDS011;29470;53.550;9.926;2023-04-24T22:35:42;6.40;;;4.15;;
43823;SDS011;29470;53.550;9.926;2023-04-24T22:40:45;9.30;;;4.30;;
43823;SDS011;29470;53.550;9.926;2023-04-24T22:45:49;7.38;;;4.22;;
43823;SDS011;29470;53.550;9.926;2023-04-24T22:50:52;9.30;;;3.90;;
43823;SDS011;29470;53.550;9.926;2023-04-24T22:55:56;9.60;;;4.57;;
43823;SDS011;29470;53.550;9.926;2023-04-24T23:01:00;9.18;;;4.30;;
43823;SDS011;29470;53.550;9.926;2023-04-24T23:06:03;7.97;;;4.30;;
43823;SDS011;29470;53.550;9.926;2023-04-24T23:11:06;10.10;;;4.35;;
43823;SDS011;29470;53.550;9.926;2023-04-24T23:16:10;8.23;;;4.70;;
43823;SDS011;29470;53.550;9.926;2023-04-24T23:21:13;9.73;;;4.45;;
43823;SDS011;29470;53.550;9.926;2023-04-24T23:26:17;7.75;;;4.22;;
43823;SDS011;29470;53.550;9.926;2023-04-24T23:31:21;7.45;;;4.18;;
43823;SDS011;29470;53.550;9.926;2023-04-24T23:36:24;7.57;;;3.80;;
43823;SDS011;29470;53.550;9.926;2023-04-24T23:41:27;6.88;;;4.40;;
43823;SDS011;29470;53.550;9.926;2023-04-24T23:46:31;9.50;;;3.80;;
43823;SDS011;29470;53.550;9.926;2023-04-24T23:51:34;7.03;;;3.63;;
43823;SDS011;29470;53.550;9.926;2023-04-24T23:56:37;7.05;;;3.95;;
